createdAt,value
2022-09-28T00:01:59.063Z,9.79
2022-09-28T00:30:37.746Z,9.83
2022-09-28T00:59:13.141Z,9.89
2022-09-28T01:27:46.879Z,9.86
2022-09-28T01:56:34.852Z,9.84
2022-09-28T02:25:18.623Z,10.06
2022-09-28T02:54:03.332Z,10.01
2022-09-28T03:23:12.629Z,9.89
2022-09-28T03:51:07.215Z,9.71
2022-09-28T04:19:43.833Z,9.8
2022-09-28T04:48:30.631Z,9.72
2022-09-28T05:17:04.311Z,9.78
2022-09-28T05:45:36.876Z,9.86
2022-09-28T06:14:08.586Z,10.03
2022-09-28T06:42:43.443Z,10.17
2022-09-28T07:11:43.896Z,10.45
2022-09-28T08:08:35.470Z,11.01
2022-09-28T08:36:56.408Z,11.32
2022-09-28T09:05:16.389Z,11.64
2022-09-28T09:33:46.081Z,12.13
2022-09-28T10:02:29.730Z,12.96
2022-09-28T10:31:04.566Z,12.99
2022-09-28T10:59:28.648Z,13.36
2022-09-28T11:27:57.419Z,13.98
2022-09-28T11:56:24.543Z,13.67
2022-09-28T12:24:54.256Z,13.64
2022-09-28T12:53:24.936Z,13.56
2022-09-28T13:21:57.605Z,13.85
2022-09-28T13:50:22.145Z,13.05
2022-09-28T14:18:51.399Z,12.93
2022-09-28T14:47:21.846Z,13.16
2022-09-28T15:15:44.910Z,12.78
2022-09-28T15:44:14.177Z,12.42
2022-09-28T16:12:42.871Z,12.3
2022-09-28T16:41:07.925Z,11.76
2022-09-28T17:09:35.699Z,11.24
2022-09-28T17:39:40.627Z,10.66
2022-09-28T18:07:27.554Z,9.97
2022-09-28T18:36:11.713Z,9.35
2022-09-28T19:04:33.826Z,8.95
2022-09-28T19:33:09.960Z,8.81
2022-09-28T20:01:39.458Z,8.92
2022-09-28T20:30:07.530Z,8.69
2022-09-28T20:58:59.107Z,8.39
2022-09-28T21:27:14.732Z,8.79
2022-09-28T21:55:56.129Z,8.89
2022-09-28T22:24:16.277Z,8.6
2022-09-28T22:52:59.146Z,8.38
2022-09-28T23:21:42.008Z,8.12
2022-09-28T23:50:25.530Z,7.97
